Terminal Aerodrome Forecast
Issued by NWS

Home | Current Version | Previous Version | Text Only | Print | Product List | Glossary On
Versions: 1 2 3 4 5 6 7 8 9 10 11 12 13 14 15 16 17 18 19 20 21 22 23 24 25 26
000
FTUS41 KBUF 091739
TAFIAG
TAF
KIAG 091739Z 0918/1018 29010KT P6SM BKN035 BKN130 BKN220
     FM092200 29009KT P6SM SCT040
     FM100200 29007KT P6SM BKN060
     FM100900 25005KT 5SM -SN BKN045
     FM101200 25007KT P6SM BKN035
     FM101500 26010G20KT P6SM BKN035
     FM101700 26012G18KT P6SM SCT250=

USA.gov is the U.S. government's official web portal to all federal, state and local government web resources and services.